50CO weather

CLOSED William T Browder Heliport
Fort Collins, Colorado, United States

Public forecast

Using degrees Fahrenheit for public forecast. Weather courtesy of forecast.io.

Closest aviation weather report (METAR) to William T Browder Heliport

Closest report is Northern Colorado Regional Airport, 12.7 nm (23.5 km) SSW. Retrieved 2020/02/17 10:56 UTC (55 minutes ago):

KFNL 171056Z AUTO 28005KT 10SM FEW095 01/M06 A2984 RMK AO2 SLP110 T00061056 FZRANO

Closest aviation forecast (TAF) to William T Browder Heliport

Closest forecast is Cheyenne Regional Jerry Olson Field, 30.5 nm (56.5 km) NNE. Retrieved 2020/02/17 06:51 UTC (5 hours ago):

TAF COR KCYS 170548Z 1706/1806 27018G28KT P6SM FEW100 WS020/28040KT FM171500 31025G33KT P6SM BKN250